| time (UTC) | temp C | wind direction | speed KPH | gust KPH | rain 1hr cm | rain 24hr cm | rain mn cm | humidity % | barometer mb |
| 20260506231727 | 18 | 308 | 0.0 | 3.2 | 0.00 | 0.74 | 0.74 | 82 | 1006.7 |
| 20260506231226 | 18 | 308 | 0.0 | 3.2 | 0.00 | 0.74 | 0.74 | 81 | 1006.8 |
| 20260506230722 | 18 | 312 | 3.2 | 3.2 | 0.00 | 0.74 | 0.74 | 81 | 1006.9 |
| 20260506230219 | 18 | 317 | 1.6 | 3.2 | 0.00 | 0.74 | 0.74 | 81 | 1006.5 |
| 20260506225715 | 18 | 11 | 0.0 | 3.2 | 0.00 | 0.74 | 0.74 | 81 | 1006.7 |
| 20260506225213 | 18 | 229 | 6.4 | 8.0 | 0.00 | 0.74 | 0.74 | 80 | 1006.7 |
| 20260506224709 | 19 | 250 | 4.8 | 9.7 | 0.00 | 0.74 | 0.74 | 80 | 1006.8 |
| 20260506224206 | 18 | 268 | 3.2 | 8.0 | 0.00 | 0.74 | 0.74 | 81 | 1006.8 |
| 20260506223702 | 18 | 273 | 3.2 | 3.2 | 0.00 | 0.74 | 0.74 | 82 | 1006.8 |
| 20260506223158 | 18 | 328 | 1.6 | 3.2 | 0.00 | 0.74 | 0.74 | 83 | 1006.7 |
| 20260506222655 | 18 | 299 | 1.6 | 3.2 | 0.00 | 0.74 | 0.74 | 83 | 1006.6 |
| 20260506222151 | 18 | 315 | 1.6 | 3.2 | 0.00 | 0.74 | 0.74 | 83 | 1006.5 |
| 20260506221649 | 18 | 258 | 3.2 | 3.2 | 0.00 | 0.74 | 0.74 | 84 | 1006.5 |
| 20260506221147 | 18 | 33 | 1.6 | 3.2 | 0.00 | 0.74 | 0.74 | 84 | 1006.3 |
| 20260506220643 | 18 | 2 | 0.0 | 3.2 | 0.00 | 0.74 | 0.74 | 84 | 1006.6 |
| 20260506220138 | 18 | 284 | 0.0 | 3.2 | 0.00 | 0.74 | 0.74 | 84 | 1006.6 |
| 20260506215635 | 18 | 326 | 0.0 | 3.2 | 0.00 | 0.74 | 0.74 | 84 | 1006.6 |
| 20260506215131 | 18 | 31 | 0.0 | 4.8 | 0.00 | 0.74 | 0.74 | 83 | 1006.6 |
| 20260506214628 | 18 | 301 | 1.6 | 3.2 | 0.00 | 0.74 | 0.74 | 84 | 1006.5 |
| 20260506214125 | 18 | 265 | 3.2 | 9.7 | 0.00 | 0.74 | 0.74 | 83 | 1006.7 |
| 20260506213624 | 18 | 325 | 3.2 | 3.2 | 0.00 | 0.74 | 0.74 | 84 | 1006.4 |
| 20260506213120 | 18 | 241 | 1.6 | 4.8 | 0.00 | 0.74 | 0.74 | 83 | 1006.3 |
| 20260506212618 | 18 | 280 | 3.2 | 4.8 | 0.00 | 0.74 | 0.74 | 83 | 1006.4 |
| 20260506212112 | 18 | 254 | 3.2 | 8.0 | 0.00 | 0.74 | 0.74 | 83 | 1006.1 |
| 20260506211608 | 18 | 244 | 3.2 | 4.8 | 0.00 | 0.74 | 0.74 | 85 | 1006.3 |
| 20260506211106 | 18 | 235 | 0.0 | 3.2 | 0.00 | 0.74 | 0.74 | 86 | 1006.2 |
| 20260506210602 | 18 | 277 | 1.6 | 8.0 | 0.00 | 0.74 | 0.74 | 86 | 1006.2 |
| 20260506210059 | 17 | 228 | 3.2 | 4.8 | 0.00 | 0.74 | 0.74 | 87 | 1006.3 |
| 20260506205555 | 17 | 254 | 0.0 | 3.2 | 0.00 | 0.74 | 0.74 | 89 | 1006.3 |
| 20260506205050 | 17 | 335 | 1.6 | 4.8 | 0.00 | 0.74 | 0.74 | 88 | 1006.4 |
| 20260506204549 | 17 | 326 | 0.0 | 3.2 | 0.00 | 0.74 | 0.74 | 89 | 1006.2 |
| 20260506204045 | 17 | 321 | 0.0 | 3.2 | 0.00 | 0.74 | 0.74 | 89 | 1006.3 |
| 20260506203544 | 17 | 296 | 0.0 | 3.2 | 0.00 | 0.74 | 0.74 | 89 | 1006.5 |
| 20260506203040 | 17 | 308 | 3.2 | 3.2 | 0.00 | 0.74 | 0.74 | 89 | 1006.3 |
| 20260506202538 | 17 | 286 | 0.0 | 3.2 | 0.00 | 0.74 | 0.74 | 89 | 1006.3 |
| 20260506202033 | 17 | 37 | 3.2 | 6.4 | 0.00 | 0.74 | 0.74 | 89 | 1006.3 |
| 20260506201532 | 17 | 302 | 3.2 | 3.2 | 0.00 | 0.74 | 0.74 | 89 | 1006.2 |
| 20260506201028 | 17 | 322 | 1.6 | 3.2 | 0.00 | 0.74 | 0.74 | 90 | 1006.1 |
| 20260506200524 | 17 | 91 | 3.2 | 4.8 | 0.00 | 0.74 | 0.74 | 89 | 1006.2 |
| 20260506200021 | 17 | 253 | 4.8 | 9.7 | 0.00 | 0.74 | 0.74 | 90 | 1006.1 |
| 20260506195518 | 17 | 3 | 1.6 | 3.2 | 0.00 | 0.74 | 0.74 | 90 | 1006.3 |
| 20260506195014 | 17 | 239 | 9.7 | 9.7 | 0.00 | 0.74 | 0.74 | 91 | 1006.2 |
| 20260506194512 | 16 | 289 | 3.2 | 12.9 | 0.00 | 0.74 | 0.74 | 90 | 1006.2 |
| 20260506194008 | 16 | 256 | 3.2 | 9.7 | 0.00 | 0.74 | 0.74 | 91 | 1006.3 |
| 20260506193506 | 16 | 254 | 3.2 | 3.2 | 0.00 | 0.74 | 0.74 | 92 | 1006.6 |
| 20260506193002 | 16 | 50 | 1.6 | 3.2 | 0.00 | 0.74 | 0.74 | 92 | 1006.4 |
| 20260506192459 | 16 | 256 | 1.6 | 4.8 | 0.00 | 0.74 | 0.74 | 92 | 1006.8 |
| 20260506191955 | 16 | 16 | 0.0 | 9.7 | 0.00 | 0.74 | 0.74 | 92 | 1006.5 |
| 20260506191452 | 16 | 23 | 3.2 | 6.4 | 0.00 | 0.74 | 0.74 | 92 | 1006.6 |
| 20260506190948 | 16 | 238 | 3.2 | 6.4 | 0.00 | 0.74 | 0.74 | 92 | 1006.7 |
| 20260506190446 | 16 | 82 | 1.6 | 6.4 | 0.00 | 0.74 | 0.74 | 92 | 1006.8 |
| 20260506185942 | 16 | 235 | 6.4 | 6.4 | 0.00 | 0.74 | 0.74 | 92 | 1006.8 |
| 20260506185439 | 16 | 299 | 1.6 | 6.4 | 0.00 | 0.74 | 0.74 | 92 | 1006.8 |
| 20260506184936 | 16 | 5 | 1.6 | 4.8 | 0.00 | 0.74 | 0.74 | 93 | 1006.8 |
| 20260506184433 | 16 | 262 | 0.0 | 9.7 | 0.00 | 0.74 | 0.74 | 92 | 1007.0 |
| 20260506183931 | 16 | 282 | 3.2 | 12.9 | 0.05 | 0.74 | 0.74 | 92 | 1007.0 |
| 20260506183426 | 16 | 281 | 1.6 | 4.8 | 0.05 | 0.74 | 0.74 | 93 | 1007.2 |
| 20260506182923 | 16 | 280 | 3.2 | 4.8 | 0.00 | 0.74 | 0.74 | 93 | 1007.2 |
| 20260506182420 | 15 | 308 | 3.2 | 9.7 | 0.00 | 0.74 | 0.74 | 93 | 1007.1 |
| 20260506181918 | 15 | 269 | 0.0 | 4.8 | 0.05 | 0.74 | 0.74 | 93 | 1007.2 |
| 20260506181415 | 15 | 236 | 0.0 | 6.4 | 0.05 | 0.74 | 0.74 | 93 | 1007.2 |
| 20260506180912 | 16 | 289 | 4.8 | 11.3 | 0.00 | 0.74 | 0.74 | 92 | 1007.1 |
| 20260506180408 | 15 | 225 | 6.4 | 9.7 | 0.00 | 0.74 | 0.74 | 92 | 1007.1 |
| 20260506175905 | 15 | 248 | 3.2 | 6.4 | 0.00 | 0.74 | 0.74 | 93 | 1007.4 |
| 20260506175402 | 15 | 322 | 1.6 | 8.0 | 0.00 | 0.74 | 0.74 | 93 | 1007.1 |
| 20260506174859 | 15 | 240 | 3.2 | 4.8 | 0.00 | 0.74 | 0.74 | 93 | 1007.4 |
| 20260506174356 | 15 | 261 | 4.8 | 4.8 | 0.00 | 0.74 | 0.74 | 93 | 1007.2 |
| 20260506173854 | 15 | 237 | 4.8 | 8.0 | 0.00 | 0.74 | 0.74 | 93 | 1007.2 |
| 20260506173350 | 15 | 311 | 0.0 | 9.7 | 0.05 | 0.74 | 0.74 | 93 | 1007.3 |
| 20260506172847 | 15 | 264 | 4.8 | 8.0 | 0.23 | 0.74 | 0.74 | 93 | 1007.3 |
| 20260506172344 | 15 | 115 | 3.2 | 8.0 | 0.36 | 0.71 | 0.71 | 93 | 1007.3 |
| 20260506171842 | 15 | 288 | 3.2 | 6.4 | 0.43 | 0.69 | 0.69 | 93 | 1007.2 |
| 20260506171338 | 15 | 8 | 1.6 | 4.8 | 0.36 | 0.66 | 0.66 | 93 | 1007.4 |
| 20260506170836 | 15 | 28 | 3.2 | 11.3 | 0.23 | 0.61 | 0.61 | 92 | 1007.4 |
| 20260506170332 | 16 | 238 | 3.2 | 4.8 | 0.00 | 0.56 | 0.56 | 92 | 1007.6 |
| 20260506165832 | 16 | 230 | 4.8 | 9.7 | 0.00 | 0.56 | 0.56 | 92 | 1007.6 |
| 20260506165329 | 16 | 249 | 9.7 | 12.9 | 0.00 | 0.56 | 0.56 | 92 | 1007.6 |
| 20260506164825 | 16 | 224 | 0.0 | 12.9 | 0.05 | 0.56 | 0.56 | 92 | 1007.6 |
| 20260506164322 | 16 | 339 | 3.2 | 12.9 | 0.05 | 0.56 | 0.56 | 92 | 1007.6 |
| 20260506163819 | 16 | 220 | 9.7 | 11.3 | 0.05 | 0.56 | 0.56 | 92 | 1007.6 |
| 20260506163314 | 16 | 229 | 11.3 | 14.5 | 0.13 | 0.56 | 0.56 | 92 | 1007.8 |
| 20260506162809 | 16 | 46 | 0.0 | 6.4 | 0.18 | 0.56 | 0.56 | 93 | 1007.4 |
| 20260506162308 | 16 | 293 | 1.6 | 12.9 | 0.18 | 0.53 | 0.53 | 93 | 1007.0 |
| 20260506161805 | 16 | 89 | 4.8 | 6.4 | 0.13 | 0.51 | 0.51 | 93 | 1006.8 |
| 20260506161302 | 16 | 263 | 1.6 | 6.4 | 0.13 | 0.51 | 0.51 | 92 | 1006.9 |
| 20260506160800 | 16 | 175 | 1.6 | 9.7 | 0.13 | 0.51 | 0.51 | 92 | 1007.6 |
| 20260506160256 | 16 | 88 | 4.8 | 6.4 | 0.18 | 0.48 | 0.48 | 92 | 1007.9 |
| 20260506155755 | 16 | 77 | 4.8 | 14.5 | 0.23 | 0.48 | 0.48 | 92 | 1008.3 |
| 20260506155251 | 16 | 229 | 6.4 | 6.4 | 0.18 | 0.46 | 0.46 | 92 | 1008.2 |
| 20260506153404 | 16 | 224 | 6.4 | 8.0 | 0.23 | 0.38 | 0.38 | 91 | 1008.4 |
| 20260506152901 | 16 | 96 | 4.8 | 6.4 | 0.23 | 0.36 | 0.36 | 91 | 1008.7 |
| 20260506152358 | 16 | 123 | 3.2 | 19.3 | 0.18 | 0.33 | 0.33 | 91 | 1008.7 |
| 20260506151857 | 16 | 235 | 3.2 | 6.4 | 0.23 | 0.30 | 0.30 | 90 | 1008.8 |
| 20260506151353 | 16 | 251 | 4.8 | 6.4 | 0.23 | 0.30 | 0.30 | 90 | 1008.9 |
| 20260506150851 | 16 | 225 | 6.4 | 14.5 | 0.18 | 0.28 | 0.28 | 90 | 1008.5 |
| 20260506150347 | 16 | 330 | 3.2 | 9.7 | 0.18 | 0.25 | 0.25 | 90 | 1008.6 |
| 20260506145844 | 16 | 18 | 1.6 | 3.2 | 0.13 | 0.23 | 0.23 | 90 | 1008.5 |
| 20260506145340 | 16 | 214 | 12.9 | 12.9 | 0.13 | 0.23 | 0.23 | 90 | 1008.5 |
| 20260506144838 | 16 | 57 | 3.2 | 8.0 | 0.23 | 0.20 | 0.20 | 89 | 1008.2 |
| 20260506144334 | 16 | 10 | 1.6 | 6.4 | 0.36 | 0.20 | 0.20 | 89 | 1008.5 |
| 20260506143833 | 16 | 172 | 4.8 | 6.4 | 0.30 | 0.15 | 0.15 | 88 | 1008.3 |
| 20260506143329 | 16 | 244 | 8.0 | 11.3 | 0.30 | 0.15 | 0.15 | 87 | 1008.3 |
| 20260506142828 | 16 | 30 | 3.2 | 9.7 | 0.36 | 0.13 | 0.13 | 86 | 1008.4 |
| 20260506142325 | 16 | 68 | 3.2 | 9.7 | 0.36 | 0.10 | 0.10 | 85 | 1008.3 |
| 20260506141823 | 17 | 245 | 1.6 | 6.4 | 0.23 | 0.05 | 0.05 | 84 | 1008.5 |
| 20260506141321 | 17 | 47 | 1.6 | 8.0 | 0.13 | 0.03 | 0.03 | 82 | 1008.6 |
| 20260506140819 | 17 | 348 | 1.6 | 6.4 | 0.05 | 0.03 | 0.03 | 81 | 1008.5 |
| 20260506140315 | 17 | 32 | 1.6 | 17.7 | 0.00 | 0.00 | 0.00 | 79 | 1008.6 |
| 20260506135812 | 17 | 250 | 3.2 | 6.4 | 0.00 | 0.00 | 0.00 | 79 | 1008.3 |
| 20260506135308 | 18 | 63 | 3.2 | 8.0 | 0.00 | 0.00 | 0.00 | 78 | 1008.2 |
| 20260506134805 | 18 | 243 | 3.2 | 12.9 | 0.00 | 0.00 | 0.00 | 79 | 1008.1 |
| 20260506134302 | 18 | 207 | 3.2 | 8.0 | 0.05 | 0.00 | 0.00 | 78 | 1008.3 |
| 20260506133759 | 18 | 48 | 1.6 | 11.3 | 0.05 | 0.00 | 0.00 | 78 | 1008.3 |
| 20260506133256 | 18 | 343 | 0.0 | 3.2 | 0.00 | 0.00 | 0.00 | 78 | 1008.5 |
| 20260506132752 | 17 | 60 | 3.2 | 4.8 | 0.00 | 0.00 | 0.00 | 77 | 1008.6 |
| 20260506132250 | 18 | 236 | 4.8 | 9.7 | 0.00 | 0.00 | 0.00 | 76 | 1008.2 |
| 20260506131748 | 18 | 258 | 3.2 | 8.0 | 0.00 | 0.00 | 0.00 | 75 | 1008.6 |
| 20260506131243 | 18 | 213 | 8.0 | 9.7 | 0.00 | 0.00 | 0.00 | 75 | 1008.6 |
| 20260506130740 | 18 | 28 | 1.6 | 3.2 | 0.00 | 0.00 | 0.00 | 75 | 1008.6 |
| 20260506130237 | 18 | 251 | 0.0 | 4.8 | 0.00 | 0.00 | 0.00 | 75 | 1008.7 |
| 20260506125735 | 18 | 63 | 1.6 | 16.1 | 0.00 | 0.00 | 0.00 | 75 | 1008.8 |
| 20260506125233 | 18 | 225 | 9.7 | 12.9 | 0.00 | 0.00 | 0.00 | 73 | 1008.6 |
| 20260506124731 | 18 | 241 | 8.0 | 12.9 | 0.00 | 0.00 | 0.00 | 73 | 1008.6 |
| 20260506124228 | 18 | 206 | 6.4 | 16.1 | 0.00 | 0.00 | 0.00 | 72 | 1008.7 |
| 20260506123726 | 18 | 342 | 0.0 | 8.0 | 0.00 | 0.00 | 0.00 | 71 | 1008.7 |
| 20260506123224 | 18 | 270 | 3.2 | 11.3 | 0.00 | 0.00 | 0.00 | 70 | 1008.6 |
| 20260506122721 | 18 | 245 | 6.4 | 9.7 | 0.00 | 0.00 | 0.00 | 70 | 1008.5 |
| 20260506122218 | 18 | 91 | 3.2 | 6.4 | 0.00 | 0.00 | 0.00 | 69 | 1008.4 |
| 20260506121716 | 18 | 85 | 4.8 | 8.0 | 0.00 | 0.00 | 0.00 | 69 | 1008.3 |
| 20260506121212 | 18 | 332 | 1.6 | 9.7 | 0.00 | 0.00 | 0.00 | 69 | 1008.2 |
| 20260506120710 | 18 | 27 | 3.2 | 14.5 | 0.00 | 0.00 | 0.00 | 69 | 1008.4 |
| 20260506120208 | 18 | 251 | 4.8 | 14.5 | 0.00 | 0.00 | 0.00 | 69 | 1008.4 |
| 20260506115706 | 18 | 147 | 0.0 | 3.2 | 0.00 | 0.00 | 0.00 | 70 | 1008.3 |
| 20260506115203 | 18 | 227 | 6.4 | 9.7 | 0.00 | 0.00 | 0.00 | 69 | 1008.4 |
| 20260506114700 | 18 | 22 | 0.0 | 8.0 | 0.00 | 0.00 | 0.00 | 70 | 1008.3 |
| 20260506114158 | 18 | 43 | 3.2 | 6.4 | 0.00 | 0.00 | 0.00 | 70 | 1008.3 |
| 20260506113657 | 18 | 321 | 3.2 | 16.1 | 0.00 | 0.00 | 0.00 | 70 | 1008.4 |
| 20260506113154 | 18 | 87 | 0.0 | 11.3 | 0.00 | 0.00 | 0.00 | 70 | 1008.3 |
| 20260506112649 | 18 | 230 | 1.6 | 14.5 | 0.00 | 0.00 | 0.00 | 70 | 1008.2 |
| 20260506112147 | 18 | 232 | 4.8 | 12.9 | 0.00 | 0.00 | 0.00 | 70 | 1008.2 |
| 20260506111645 | 18 | 347 | 3.2 | 6.4 | 0.00 | 0.00 | 0.00 | 69 | 1008.1 |
| 20260506111142 | 18 | 36 | 3.2 | 6.4 | 0.00 | 0.00 | 0.00 | 70 | 1008.3 |
| 20260506110639 | 18 | 247 | 3.2 | 11.3 | 0.00 | 0.00 | 0.00 | 69 | 1008.3 |
| 20260506110137 | 18 | 276 | 3.2 | 9.7 | 0.00 | 0.00 | 0.00 | 69 | 1008.4 |
| 20260506105633 | 18 | 51 | 0.0 | 9.7 | 0.00 | 0.00 | 0.00 | 69 | 1008.0 |
| 20260506105130 | 18 | 85 | 4.8 | 6.4 | 0.00 | 0.00 | 0.00 | 69 | 1007.9 |
| 20260506104629 | 18 | 298 | 4.8 | 12.9 | 0.00 | 0.00 | 0.00 | 69 | 1008.0 |
| 20260506104126 | 18 | 252 | 0.0 | 22.5 | 0.00 | 0.00 | 0.00 | 69 | 1008.2 |
| 20260506103623 | 18 | 194 | 8.0 | 22.5 | 0.00 | 0.00 | 0.00 | 69 | 1008.0 |
| 20260506103120 | 18 | 66 | 1.6 | 22.5 | 0.00 | 0.00 | 0.00 | 69 | 1007.8 |
| 20260506102618 | 18 | 53 | 3.2 | 6.4 | 0.00 | 0.00 | 0.00 | 70 | 1007.8 |
| 20260506102115 | 18 | 55 | 1.6 | 9.7 | 0.00 | 0.00 | 0.00 | 69 | 1007.7 |
| 20260506101612 | 18 | 127 | 3.2 | 6.4 | 0.00 | 0.00 | 0.00 | 70 | 1007.8 |
| 20260506101108 | 18 | 75 | 3.2 | 8.0 | 0.00 | 0.00 | 0.00 | 69 | 1007.7 |
| 20260506100607 | 18 | 219 | 6.4 | 14.5 | 0.00 | 0.00 | 0.00 | 69 | 1007.7 |
| 20260506100104 | 18 | 3 | 1.6 | 4.8 | 0.00 | 0.00 | 0.00 | 69 | 1007.7 |
| 20260506095603 | 18 | 106 | 3.2 | 6.4 | 0.00 | 0.00 | 0.00 | 69 | 1007.7 |
| 20260506095059 | 18 | 31 | 3.2 | 4.8 | 0.00 | 0.00 | 0.00 | 69 | 1007.9 |
| 20260506094557 | 18 | 251 | 8.0 | 11.3 | 0.00 | 0.00 | 0.00 | 70 | 1007.9 |
| 20260506094055 | 18 | 246 | 3.2 | 4.8 | 0.00 | 0.00 | 0.00 | 69 | 1007.9 |
| 20260506093553 | 18 | 277 | 3.2 | 4.8 | 0.00 | 0.00 | 0.00 | 69 | 1007.8 |
| 20260506093050 | 18 | 25 | 1.6 | 12.9 | 0.00 | 0.00 | 0.00 | 69 | 1007.8 |
| 20260506092548 | 18 | 233 | 6.4 | 6.4 | 0.00 | 0.00 | 0.00 | 69 | 1007.9 |
| 20260506092044 | 18 | 56 | 3.2 | 4.8 | 0.00 | 0.00 | 0.00 | 69 | 1007.8 |
| 20260506091543 | 18 | 45 | 0.0 | 4.8 | 0.00 | 0.00 | 0.00 | 69 | 1008.0 |
| 20260506091039 | 18 | 243 | 3.2 | 6.4 | 0.00 | 0.00 | 0.00 | 68 | 1007.9 |
| 20260506090537 | 18 | 22 | 3.2 | 11.3 | 0.00 | 0.00 | 0.00 | 68 | 1008.2 |
| 20260506090033 | 18 | 43 | 1.6 | 6.4 | 0.00 | 0.00 | 0.00 | 67 | 1007.9 |
| 20260506085530 | 18 | 89 | 3.2 | 3.2 | 0.00 | 0.00 | 0.00 | 67 | 1007.9 |
| 20260506085027 | 18 | 224 | 4.8 | 11.3 | 0.00 | 0.00 | 0.00 | 67 | 1008.1 |
| 20260506084524 | 18 | 56 | 1.6 | 6.4 | 0.00 | 0.00 | 0.00 | 67 | 1008.1 |
| 20260506084020 | 18 | 146 | 3.2 | 6.4 | 0.00 | 0.00 | 0.00 | 67 | 1008.1 |
| 20260506083517 | 18 | 321 | 4.8 | 4.8 | 0.00 | 0.00 | 0.00 | 66 | 1008.1 |
| 20260506083015 | 18 | 254 | 1.6 | 8.0 | 0.00 | 0.00 | 0.00 | 66 | 1008.0 |
| 20260506082511 | 19 | 245 | 3.2 | 11.3 | 0.00 | 0.00 | 0.00 | 66 | 1008.3 |
| 20260506082007 | 18 | 149 | 3.2 | 6.4 | 0.00 | 0.00 | 0.00 | 66 | 1008.1 |
| 20260506081505 | 19 | 218 | 8.0 | 8.0 | 0.00 | 0.00 | 0.00 | 65 | 1007.9 |
| 20260506081003 | 19 | 279 | 1.6 | 16.1 | 0.00 | 0.00 | 0.00 | 65 | 1008.1 |
| 20260506080500 | 19 | 17 | 3.2 | 6.4 | 0.00 | 0.00 | 0.00 | 65 | 1008.1 |
| 20260506073443 | 18 | 287 | 1.6 | 6.4 | 0.00 | 0.00 | 0.00 | 63 | 1008.1 |
| 20260506072941 | 18 | 223 | 1.6 | 9.7 | 0.00 | 0.00 | 0.00 | 63 | 1008.3 |
| 20260506072437 | 18 | 266 | 4.8 | 4.8 | 0.00 | 0.00 | 0.00 | 63 | 1008.3 |
| 20260506071936 | 18 | 240 | 8.0 | 11.3 | 0.00 | 0.00 | 0.00 | 63 | 1008.2 |
| 20260506071433 | 18 | 74 | 3.2 | 6.4 | 0.00 | 0.00 | 0.00 | 63 | 1008.3 |
| 20260506070930 | 18 | 42 | 0.0 | 4.8 | 0.00 | 0.00 | 0.00 | 62 | 1008.2 |
| 20260506070427 | 18 | 302 | 1.6 | 8.0 | 0.00 | 0.00 | 0.00 | 62 | 1008.4 |
| 20260506062404 | 19 | 57 | 3.2 | 3.2 | 0.00 | 0.00 | 0.00 | 59 | 1008.8 |
| 20260506061900 | 19 | 36 | 1.6 | 4.8 | 0.00 | 0.00 | 0.00 | 59 | 1008.7 |
| 20260506061357 | 18 | 283 | 3.2 | 4.8 | 0.00 | 0.00 | 0.00 | 59 | 1008.8 |
| 20260506060855 | 18 | 34 | 1.6 | 3.2 | 0.00 | 0.00 | 0.00 | 60 | 1008.8 |
| 20260506060353 | 18 | 6 | 0.0 | 3.2 | 0.00 | 0.00 | 0.00 | 61 | 1008.9 |
| 20260506051325 | 18 | 54 | 0.0 | 4.8 | 0.00 | 0.00 | 0.00 | 60 | 1009.2 |
| 20260506050823 | 18 | 63 | 1.6 | 3.2 | 0.00 | 0.00 | 0.00 | 60 | 1009.4 |
| 20260506050319 | 18 | 61 | 3.2 | 4.8 | 0.00 | 0.00 | 0.00 | 61 | 1009.4 |
| 20260506044810 | 18 | 35 | 3.2 | 3.2 | 0.00 | 0.00 | 0.00 | 59 | 1009.3 |
| 20260506044307 | 18 | 29 | 1.6 | 3.2 | 0.00 | 0.00 | 0.00 | 59 | 1009.5 |
| 20260506043804 | 18 | 49 | 3.2 | 3.2 | 0.00 | 0.00 | 0.00 | 59 | 1009.3 |
| 20260506043301 | 18 | 36 | 0.0 | 3.2 | 0.00 | 0.00 | 0.00 | 59 | 1009.2 |
| 20260506042801 | 18 | 37 | 1.6 | 3.2 | 0.00 | 0.00 | 0.00 | 58 | 1009.4 |
| 20260506042259 | 18 | 305 | 0.0 | 3.2 | 0.00 | 0.00 | 0.00 | 57 | 1009.5 |
| 20260506041757 | 19 | 41 | 1.6 | 3.2 | 0.00 | 0.00 | 0.00 | 57 | 1009.5 |
| 20260506041253 | 19 | 48 | 3.2 | 3.2 | 0.00 | 0.00 | 0.00 | 56 | 1009.2 |
| 20260506040751 | 19 | 17 | 1.6 | 3.2 | 0.00 | 0.00 | 0.00 | 55 | 1009.1 |
| 20260506040248 | 19 | 58 | 3.2 | 3.2 | 0.00 | 0.00 | 0.00 | 55 | 1009.2 |
| 20260506035745 | 20 | 39 | 1.6 | 3.2 | 0.00 | 0.00 | 0.00 | 54 | 1009.4 |
| 20260506035242 | 20 | 16 | 1.6 | 3.2 | 0.00 | 0.00 | 0.00 | 53 | 1009.2 |
| 20260506034738 | 20 | 43 | 0.0 | 3.2 | 0.00 | 0.00 | 0.00 | 53 | 1009.0 |
| 20260506034236 | 20 | 9 | 1.6 | 3.2 | 0.00 | 0.00 | 0.00 | 53 | 1009.3 |
| 20260506033733 | 20 | 47 | 4.8 | 4.8 | 0.00 | 0.00 | 0.00 | 52 | 1009.2 |
| 20260506033230 | 20 | 55 | 3.2 | 3.2 | 0.00 | 0.00 | 0.00 | 52 | 1009.1 |
| 20260506032727 | 20 | 69 | 0.0 | 3.2 | 0.00 | 0.00 | 0.00 | 51 | 1009.1 |
| 20260506032223 | 20 | 50 | 3.2 | 3.2 | 0.00 | 0.00 | 0.00 | 51 | 1008.9 |
| 20260506031720 | 20 | 53 | 3.2 | 3.2 | 0.00 | 0.00 | 0.00 | 50 | 1009.1 |
| 20260506031218 | 20 | 53 | 0.0 | 3.2 | 0.00 | 0.00 | 0.00 | 50 | 1009.3 |
| 20260506030716 | 20 | 11 | 4.8 | 4.8 | 0.00 | 0.00 | 0.00 | 50 | 1009.1 |
| 20260506030213 | 20 | 35 | 1.6 | 3.2 | 0.00 | 0.00 | 0.00 | 50 | 1009.0 |
| 20260506025709 | 20 | 190 | 1.6 | 3.2 | 0.00 | 0.00 | 0.00 | 49 | 1009.1 |
| 20260506025206 | 21 | 29 | 0.0 | 3.2 | 0.00 | 0.00 | 0.00 | 49 | 1009.2 |
| 20260506024703 | 21 | 24 | 1.6 | 3.2 | 0.00 | 0.00 | 0.00 | 48 | 1009.2 |
| 20260506024159 | 21 | 31 | 1.6 | 3.2 | 0.00 | 0.00 | 0.00 | 48 | 1009.0 |
| 20260506023656 | 21 | 11 | 3.2 | 4.8 | 0.00 | 0.00 | 0.00 | 47 | 1009.2 |
| 20260506023153 | 21 | 301 | 0.0 | 3.2 | 0.00 | 0.00 | 0.00 | 46 | 1009.1 |
| 20260506022650 | 21 | 22 | 3.2 | 4.8 | 0.00 | 0.00 | 0.00 | 45 | 1009.2 |
| 20260506022148 | 21 | 334 | 3.2 | 6.4 | 0.00 | 0.00 | 0.00 | 45 | 1009.1 |
| 20260506021646 | 21 | 234 | 0.0 | 4.8 | 0.00 | 0.00 | 0.00 | 45 | 1009.1 |
| 20260506021142 | 22 | 246 | 4.8 | 8.0 | 0.00 | 0.00 | 0.00 | 44 | 1009.0 |
| 20260506020639 | 22 | 66 | 3.2 | 3.2 | 0.00 | 0.00 | 0.00 | 44 | 1009.1 |
| 20260506020137 | 22 | 1 | 1.6 | 4.8 | 0.00 | 0.00 | 0.00 | 44 | 1009.2 |
| 20260506015634 | 22 | 186 | 3.2 | 8.0 | 0.00 | 0.00 | 0.00 | 44 | 1009.0 |
| 20260506015131 | 22 | 10 | 1.6 | 4.8 | 0.00 | 0.00 | 0.00 | 44 | 1008.9 |
| 20260506014629 | 22 | 13 | 0.0 | 4.8 | 0.00 | 0.00 | 0.00 | 43 | 1008.7 |
| 20260506014124 | 22 | 238 | 0.0 | 3.2 | 0.00 | 0.00 | 0.00 | 42 | 1008.8 |
| 20260506013623 | 23 | 89 | 3.2 | 9.7 | 0.00 | 0.00 | 0.00 | 41 | 1008.8 |
| 20260506013119 | 23 | 240 | 6.4 | 16.1 | 0.00 | 0.00 | 0.00 | 40 | 1008.9 |
| 20260506012616 | 23 | 50 | 0.0 | 8.0 | 0.00 | 0.00 | 0.00 | 41 | 1008.5 |
| 20260506012112 | 23 | 13 | 1.6 | 3.2 | 0.00 | 0.00 | 0.00 | 41 | 1008.4 |
| 20260506011610 | 23 | 99 | 0.0 | 17.7 | 0.00 | 0.00 | 0.00 | 40 | 1008.5 |
| 20260506011106 | 23 | 125 | 1.6 | 3.2 | 0.00 | 0.00 | 0.00 | 40 | 1008.4 |
| 20260506010606 | 23 | 74 | 1.6 | 6.4 | 0.00 | 0.00 | 0.00 | 39 | 1008.3 |
| 20260506005559 | 23 | 302 | 0.0 | 14.5 | 0.00 | 0.00 | 0.00 | 38 | 1008.3 |
| 20260506005055 | 23 | 341 | 1.6 | 4.8 | 0.00 | 0.00 | 0.00 | 38 | 1008.2 |
| 20260506004552 | 23 | 245 | 1.6 | 4.8 | 0.00 | 0.00 | 0.00 | 38 | 1008.2 |
| 20260506004049 | 23 | 235 | 8.0 | 9.7 | 0.00 | 0.00 | 0.00 | 38 | 1008.2 |
| 20260506003545 | 23 | 94 | 3.2 | 6.4 | 0.00 | 0.00 | 0.00 | 39 | 1008.3 |
| 20260506003042 | 23 | 256 | 3.2 | 6.4 | 0.00 | 0.00 | 0.00 | 38 | 1007.9 |
| 20260506002537 | 23 | 43 | 1.6 | 4.8 | 0.00 | 0.00 | 0.00 | 38 | 1008.1 |
| 20260506002033 | 23 | 256 | 9.7 | 9.7 | 0.00 | 0.00 | 0.00 | 37 | 1007.9 |
| 20260506001530 | 23 | 353 | 0.0 | 4.8 | 0.00 | 0.00 | 0.00 | 37 | 1007.9 |
| 20260506001027 | 24 | 230 | 6.4 | 9.7 | 0.00 | 0.00 | 0.00 | 37 | 1007.9 |
| 20260506000525 | 24 | 40 | 3.2 | 4.8 | 0.00 | 0.00 | 0.00 | 37 | 1007.8 |
| 20260506000022 | 24 | 309 | 0.0 | 4.8 | 0.00 | 0.00 | 0.00 | 37 | 1007.8 |
| 20260505235520 | 24 | 264 | 3.2 | 8.0 | 0.00 | 0.00 | 0.00 | 36 | 1007.7 |
| 20260505235016 | 25 | 79 | 0.0 | 4.8 | 0.00 | 0.00 | 0.00 | 36 | 1007.7 |
| 20260505234514 | 25 | 96 | 3.2 | 8.0 | 0.00 | 0.00 | 0.00 | 35 | 1007.9 |
| 20260505234010 | 25 | 225 | 9.7 | 16.1 | 0.00 | 0.00 | 0.00 | 36 | 1007.5 |
| 20260505233508 | 25 | 269 | 1.6 | 6.4 | 0.00 | 0.00 | 0.00 | 35 | 1007.6 |
| 20260505233005 | 25 | 342 | 3.2 | 20.9 | 0.00 | 0.00 | 0.00 | 35 | 1007.7 |
| 20260505232503 | 25 | 284 | 4.8 | 9.7 | 0.00 | 0.00 | 0.00 | 35 | 1007.9 |
| 20260505232000 | 25 | 211 | 9.7 | 14.5 | 0.00 | 0.00 | 0.00 | 35 | 1007.5 |